sensor_id;sensor_type;location;lat;lon;timestamp;P1;durP1;ratioP1;P2;durP2;ratioP2
3817;SDS011;1924;48.078;11.516;2024-01-15T00:01:41;23.97;;;0.80;;
3817;SDS011;1924;48.078;11.516;2024-01-15T00:04:09;23.90;;;0.80;;
3817;SDS011;1924;48.078;11.516;2024-01-15T00:06:37;23.80;;;0.80;;
3817;SDS011;1924;48.078;11.516;2024-01-15T00:09:04;24.00;;;0.80;;
3817;SDS011;1924;48.078;11.516;2024-01-15T00:11:33;24.00;;;0.80;;
3817;SDS011;1924;48.078;11.516;2024-01-15T00:14:00;23.93;;;0.80;;
3817;SDS011;1924;48.078;11.516;2024-01-15T00:16:27;24.00;;;0.80;;
3817;SDS011;1924;48.078;11.516;2024-01-15T00:18:54;23.90;;;0.80;;
3817;SDS011;1924;48.078;11.516;2024-01-15T00:21:20;24.00;;;0.80;;
3817;SDS011;1924;48.078;11.516;2024-01-15T00:23:49;24.07;;;0.80;;
3817;SDS011;1924;48.078;11.516;2024-01-15T00:26:16;24.10;;;0.80;;
3817;SDS011;1924;48.078;11.516;2024-01-15T00:28:43;24.10;;;0.80;;
3817;SDS011;1924;48.078;11.516;2024-01-15T00:31:09;24.20;;;0.80;;
3817;SDS011;1924;48.078;11.516;2024-01-15T00:33:36;24.20;;;0.80;;
3817;SDS011;1924;48.078;11.516;2024-01-15T00:36:03;24.40;;;0.80;;
3817;SDS011;1924;48.078;11.516;2024-01-15T00:38:30;24.20;;;0.80;;
3817;SDS011;1924;48.078;11.516;2024-01-15T00:40:58;24.30;;;0.80;;
3817;SDS011;1924;48.078;11.516;2024-01-15T00:43:25;24.20;;;0.80;;
3817;SDS011;1924;48.078;11.516;2024-01-15T00:45:51;24.40;;;0.80;;
3817;SDS011;1924;48.078;11.516;2024-01-15T00:48:18;24.33;;;0.80;;
3817;SDS011;1924;48.078;11.516;2024-01-15T00:50:45;24.40;;;0.80;;
3817;SDS011;1924;48.078;11.516;2024-01-15T00:53:12;24.30;;;0.80;;
3817;SDS011;1924;48.078;11.516;2024-01-15T00:55:38;24.30;;;0.80;;
3817;SDS011;1924;48.078;11.516;2024-01-15T00:58:06;24.40;;;0.80;;
3817;SDS011;1924;48.078;11.516;2024-01-15T01:00:33;24.30;;;0.80;;
3817;SDS011;1924;48.078;11.516;2024-01-15T01:03:00;24.47;;;0.80;;
3817;SDS011;1924;48.078;11.516;2024-01-15T01:05:26;24.57;;;0.80;;
3817;SDS011;1924;48.078;11.516;2024-01-15T01:07:53;24.40;;;0.80;;
3817;SDS011;1924;48.078;11.516;2024-01-15T01:10:20;24.50;;;0.80;;
3817;SDS011;1924;48.078;11.516;2024-01-15T01:12:47;24.30;;;0.80;;
3817;SDS011;1924;48.078;11.516;2024-01-15T01:15:15;24.40;;;0.80;;
3817;SDS011;1924;48.078;11.516;2024-01-15T01:17:41;24.40;;;0.80;;
3817;SDS011;1924;48.078;11.516;2024-01-15T01:20:08;24.47;;;0.80;;
3817;SDS011;1924;48.078;11.516;2024-01-15T01:22:35;24.40;;;0.80;;
3817;SDS011;1924;48.078;11.516;2024-01-15T05:00:24;23.70;;;0.80;;
3817;SDS011;1924;48.078;11.516;2024-01-15T05:02:51;23.67;;;0.80;;
3817;SDS011;1924;48.078;11.516;2024-01-15T05:05:18;23.70;;;0.80;;
3817;SDS011;1924;48.078;11.516;2024-01-15T05:07:44;23.60;;;0.80;;
3817;SDS011;1924;48.078;11.516;2024-01-15T05:10:11;23.77;;;0.80;;
3817;SDS011;1924;48.078;11.516;2024-01-15T05:12:38;23.70;;;0.80;;
3817;SDS011;1924;48.078;11.516;2024-01-15T05:15:05;23.60;;;0.80;;
3817;SDS011;1924;48.078;11.516;2024-01-15T05:17:33;23.80;;;0.80;;
3817;SDS011;1924;48.078;11.516;2024-01-15T05:20:00;23.70;;;0.80;;
3817;SDS011;1924;48.078;11.516;2024-01-15T05:22:28;23.50;;;0.80;;
3817;SDS011;1924;48.078;11.516;2024-01-15T05:24:54;23.50;;;0.80;;
3817;SDS011;1924;48.078;11.516;2024-01-15T05:27:21;23.60;;;0.80;;
3817;SDS011;1924;48.078;11.516;2024-01-15T05:29:48;23.60;;;0.80;;
3817;SDS011;1924;48.078;11.516;2024-01-15T05:32:15;23.60;;;0.80;;
3817;SDS011;1924;48.078;11.516;2024-01-15T05:34:43;23.77;;;0.80;;
3817;SDS011;1924;48.078;11.516;2024-01-15T05:37:09;23.70;;;0.80;;
3817;SDS011;1924;48.078;11.516;2024-01-15T05:39:36;23.60;;;0.80;;
3817;SDS011;1924;48.078;11.516;2024-01-15T05:42:03;23.63;;;0.80;;
3817;SDS011;1924;48.078;11.516;2024-01-15T05:44:30;23.47;;;0.80;;
3817;SDS011;1924;48.078;11.516;2024-01-15T05:46:57;23.60;;;0.80;;
3817;SDS011;1924;48.078;11.516;2024-01-15T05:49:23;23.70;;;0.80;;
3817;SDS011;1924;48.078;11.516;2024-01-15T05:51:52;23.70;;;0.80;;
3817;SDS011;1924;48.078;11.516;2024-01-15T05:54:18;23.60;;;0.80;;
3817;SDS011;1924;48.078;11.516;2024-01-15T05:56:45;23.60;;;0.80;;
3817;SDS011;1924;48.078;11.516;2024-01-15T05:59:12;23.70;;;0.80;;
3817;SDS011;1924;48.078;11.516;2024-01-15T06:01:39;23.50;;;0.80;;
3817;SDS011;1924;48.078;11.516;2024-01-15T06:04:06;23.80;;;0.80;;
3817;SDS011;1924;48.078;11.516;2024-01-15T06:06:32;23.80;;;0.80;;
3817;SDS011;1924;48.078;11.516;2024-01-15T06:09:00;23.70;;;0.80;;
3817;SDS011;1924;48.078;11.516;2024-01-15T06:11:30;23.60;;;0.80;;
3817;SDS011;1924;48.078;11.516;2024-01-15T06:13:57;23.80;;;0.80;;
3817;SDS011;1924;48.078;11.516;2024-01-15T06:16:24;23.73;;;0.80;;
3817;SDS011;1924;48.078;11.516;2024-01-15T06:18:50;23.60;;;0.80;;
3817;SDS011;1924;48.078;11.516;2024-01-15T06:21:17;23.70;;;0.80;;
3817;SDS011;1924;48.078;11.516;2024-01-15T06:23:44;23.60;;;0.80;;
3817;SDS011;1924;48.078;11.516;2024-01-15T06:26:14;23.70;;;0.80;;
3817;SDS011;1924;48.078;11.516;2024-01-15T06:28:41;23.60;;;0.80;;
3817;SDS011;1924;48.078;11.516;2024-01-15T06:31:07;23.70;;;0.80;;
3817;SDS011;1924;48.078;11.516;2024-01-15T06:33:34;23.60;;;0.80;;
3817;SDS011;1924;48.078;11.516;2024-01-15T06:38:37;23.70;;;0.80;;
3817;SDS011;1924;48.078;11.516;2024-01-15T06:41:09;23.67;;;0.80;;
3817;SDS011;1924;48.078;11.516;2024-01-15T06:43:37;23.70;;;0.80;;
3817;SDS011;1924;48.078;11.516;2024-01-15T06:46:04;23.70;;;0.80;;
3817;SDS011;1924;48.078;11.516;2024-01-15T06:51:53;23.70;;;0.80;;
3817;SDS011;1924;48.078;11.516;2024-01-15T06:54:19;23.70;;;0.80;;
3817;SDS011;1924;48.078;11.516;2024-01-15T06:59:21;23.67;;;0.80;;
3817;SDS011;1924;48.078;11.516;2024-01-15T07:01:48;23.60;;;0.80;;
3817;SDS011;1924;48.078;11.516;2024-01-15T07:04:15;23.70;;;0.80;;
3817;SDS011;1924;48.078;11.516;2024-01-15T07:06:42;23.70;;;0.80;;
3817;SDS011;1924;48.078;11.516;2024-01-15T07:11:44;23.73;;;0.80;;
3817;SDS011;1924;48.078;11.516;2024-01-15T07:14:14;23.73;;;0.80;;
3817;SDS011;1924;48.078;11.516;2024-01-15T07:16:42;23.77;;;0.80;;
3817;SDS011;1924;48.078;11.516;2024-01-15T07:19:08;23.60;;;0.80;;
3817;SDS011;1924;48.078;11.516;2024-01-15T07:21:35;23.70;;;0.80;;
3817;SDS011;1924;48.078;11.516;2024-01-15T07:24:04;23.60;;;0.80;;
3817;SDS011;1924;48.078;11.516;2024-01-15T07:26:31;23.70;;;0.80;;
3817;SDS011;1924;48.078;11.516;2024-01-15T07:28:58;23.70;;;0.80;;
3817;SDS011;1924;48.078;11.516;2024-01-15T07:31:25;23.80;;;0.80;;
3817;SDS011;1924;48.078;11.516;2024-01-15T07:33:53;23.80;;;0.80;;
3817;SDS011;1924;48.078;11.516;2024-01-15T07:36:19;23.70;;;0.80;;
3817;SDS011;1924;48.078;11.516;2024-01-15T07:38:46;23.60;;;0.80;;
3817;SDS011;1924;48.078;11.516;2024-01-15T07:41:13;23.60;;;0.80;;
3817;SDS011;1924;48.078;11.516;2024-01-15T07:43:40;23.50;;;0.80;;
3817;SDS011;1924;48.078;11.516;2024-01-15T07:46:06;23.80;;;0.80;;
3817;SDS011;1924;48.078;11.516;2024-01-15T07:48:33;23.70;;;0.80;;
3817;SDS011;1924;48.078;11.516;2024-01-15T07:51:01;23.80;;;0.80;;
3817;SDS011;1924;48.078;11.516;2024-01-15T07:53:29;23.80;;;0.80;;
3817;SDS011;1924;48.078;11.516;2024-01-15T07:55:55;23.80;;;0.80;;
3817;SDS011;1924;48.078;11.516;2024-01-15T07:58:22;23.73;;;0.80;;
3817;SDS011;1924;48.078;11.516;2024-01-15T08:00:49;23.70;;;0.80;;
3817;SDS011;1924;48.078;11.516;2024-01-15T08:03:16;23.70;;;0.80;;
3817;SDS011;1924;48.078;11.516;2024-01-15T08:05:43;23.80;;;0.80;;
3817;SDS011;1924;48.078;11.516;2024-01-15T08:08:11;23.80;;;0.80;;
3817;SDS011;1924;48.078;11.516;2024-01-15T08:10:38;23.80;;;0.80;;
3817;SDS011;1924;48.078;11.516;2024-01-15T08:13:05;23.80;;;0.80;;
3817;SDS011;1924;48.078;11.516;2024-01-15T08:15:33;23.80;;;0.80;;
3817;SDS011;1924;48.078;11.516;2024-01-15T08:17:59;23.83;;;0.80;;
3817;SDS011;1924;48.078;11.516;2024-01-15T08:20:26;23.80;;;0.80;;
3817;SDS011;1924;48.078;11.516;2024-01-15T08:22:54;23.87;;;0.80;;
3817;SDS011;1924;48.078;11.516;2024-01-15T08:25:22;23.80;;;0.80;;
3817;SDS011;1924;48.078;11.516;2024-01-15T08:27:49;23.80;;;0.80;;
3817;SDS011;1924;48.078;11.516;2024-01-15T08:30:16;23.97;;;0.80;;
3817;SDS011;1924;48.078;11.516;2024-01-15T08:32:43;23.80;;;0.80;;
3817;SDS011;1924;48.078;11.516;2024-01-15T08:35:10;23.90;;;0.80;;
3817;SDS011;1924;48.078;11.516;2024-01-15T08:37:37;23.90;;;0.80;;
3817;SDS011;1924;48.078;11.516;2024-01-15T08:40:05;23.80;;;0.80;;
3817;SDS011;1924;48.078;11.516;2024-01-15T08:42:33;24.00;;;0.80;;
3817;SDS011;1924;48.078;11.516;2024-01-15T08:45:00;23.90;;;0.80;;
3817;SDS011;1924;48.078;11.516;2024-01-15T08:47:26;23.90;;;0.80;;
3817;SDS011;1924;48.078;11.516;2024-01-15T08:49:53;23.90;;;0.80;;
3817;SDS011;1924;48.078;11.516;2024-01-15T08:52:20;23.87;;;0.80;;
3817;SDS011;1924;48.078;11.516;2024-01-15T08:54:47;23.90;;;0.80;;
3817;SDS011;1924;48.078;11.516;2024-01-15T08:57:14;23.80;;;0.80;;
3817;SDS011;1924;48.078;11.516;2024-01-15T08:59:42;23.90;;;0.80;;
3817;SDS011;1924;48.078;11.516;2024-01-15T09:02:10;23.80;;;0.80;;
3817;SDS011;1924;48.078;11.516;2024-01-15T09:04:37;23.97;;;0.80;;
3817;SDS011;1924;48.078;11.516;2024-01-15T09:07:04;24.00;;;0.80;;
3817;SDS011;1924;48.078;11.516;2024-01-15T09:09:30;24.10;;;0.80;;
3817;SDS011;1924;48.078;11.516;2024-01-15T09:11:57;23.90;;;0.80;;
3817;SDS011;1924;48.078;11.516;2024-01-15T09:14:24;24.10;;;0.80;;
3817;SDS011;1924;48.078;11.516;2024-01-15T09:16:53;24.00;;;0.80;;
3817;SDS011;1924;48.078;11.516;2024-01-15T09:19:21;24.10;;;0.80;;
3817;SDS011;1924;48.078;11.516;2024-01-15T09:21:47;24.00;;;0.80;;
3817;SDS011;1924;48.078;11.516;2024-01-15T09:24:14;23.90;;;0.80;;
3817;SDS011;1924;48.078;11.516;2024-01-15T09:26:41;24.10;;;0.80;;
3817;SDS011;1924;48.078;11.516;2024-01-15T09:29:08;24.10;;;0.80;;
3817;SDS011;1924;48.078;11.516;2024-01-15T09:31:35;24.10;;;0.80;;
3817;SDS011;1924;48.078;11.516;2024-01-15T09:34:03;24.00;;;0.80;;
3817;SDS011;1924;48.078;11.516;2024-01-15T09:36:29;24.23;;;0.80;;
3817;SDS011;1924;48.078;11.516;2024-01-15T09:38:56;24.30;;;0.80;;
3817;SDS011;1924;48.078;11.516;2024-01-15T09:41:23;24.13;;;0.80;;
3817;SDS011;1924;48.078;11.516;2024-01-15T09:43:50;24.30;;;0.80;;
3817;SDS011;1924;48.078;11.516;2024-01-15T09:46:17;24.20;;;0.80;;
3817;SDS011;1924;48.078;11.516;2024-01-15T09:48:44;24.30;;;0.80;;
3817;SDS011;1924;48.078;11.516;2024-01-15T09:51:12;24.30;;;0.80;;
3817;SDS011;1924;48.078;11.516;2024-01-15T09:53:40;24.50;;;0.80;;
3817;SDS011;1924;48.078;11.516;2024-01-15T09:58:43;24.30;;;0.80;;
3817;SDS011;1924;48.078;11.516;2024-01-15T10:01:11;24.50;;;0.80;;
3817;SDS011;1924;48.078;11.516;2024-01-15T10:03:40;24.50;;;0.80;;
3817;SDS011;1924;48.078;11.516;2024-01-15T10:08:44;24.40;;;0.80;;
3817;SDS011;1924;48.078;11.516;2024-01-15T10:11:13;24.60;;;0.80;;
3817;SDS011;1924;48.078;11.516;2024-01-15T10:13:41;24.50;;;0.80;;
3817;SDS011;1924;48.078;11.516;2024-01-15T10:23:57;24.70;;;0.80;;
3817;SDS011;1924;48.078;11.516;2024-01-15T10:31:28;24.80;;;0.80;;
3817;SDS011;1924;48.078;11.516;2024-01-15T10:59:40;25.00;;;0.80;;
3817;SDS011;1924;48.078;11.516;2024-01-15T11:21:21;25.10;;;0.80;;
3817;SDS011;1924;48.078;11.516;2024-01-15T11:23:53;25.20;;;0.80;;
3817;SDS011;1924;48.078;11.516;2024-01-15T12:41:54;25.00;;;0.80;;
3817;SDS011;1924;48.078;11.516;2024-01-15T13:15:35;25.30;;;0.80;;
3817;SDS011;1924;48.078;11.516;2024-01-15T13:31:06;25.70;;;0.80;;
3817;SDS011;1924;48.078;11.516;2024-01-15T13:33:33;25.80;;;0.80;;
3817;SDS011;1924;48.078;11.516;2024-01-15T13:36:00;26.00;;;0.80;;
3817;SDS011;1924;48.078;11.516;2024-01-15T13:38:28;25.90;;;0.80;;
3817;SDS011;1924;48.078;11.516;2024-01-15T13:46:25;25.80;;;0.80;;
3817;SDS011;1924;48.078;11.516;2024-01-15T13:56:38;25.90;;;0.80;;
3817;SDS011;1924;48.078;11.516;2024-01-15T14:04:30;25.60;;;0.80;;
3817;SDS011;1924;48.078;11.516;2024-01-15T14:49:10;25.10;;;0.80;;
3817;SDS011;1924;48.078;11.516;2024-01-15T14:54:13;25.00;;;0.80;;
3817;SDS011;1924;48.078;11.516;2024-01-15T14:56:40;25.10;;;0.80;;
3817;SDS011;1924;48.078;11.516;2024-01-15T15:19:49;24.97;;;0.80;;
3817;SDS011;1924;48.078;11.516;2024-01-15T16:13:52;24.70;;;0.80;;
3817;SDS011;1924;48.078;11.516;2024-01-15T16:26:45;24.80;;;0.80;;
3817;SDS011;1924;48.078;11.516;2024-01-15T16:29:13;24.70;;;0.80;;
3817;SDS011;1924;48.078;11.516;2024-01-15T16:45:06;24.70;;;0.80;;
3817;SDS011;1924;48.078;11.516;2024-01-15T16:53:41;24.70;;;0.80;;
3817;SDS011;1924;48.078;11.516;2024-01-15T17:03:54;24.80;;;0.80;;
3817;SDS011;1924;48.078;11.516;2024-01-15T17:11:41;24.70;;;0.80;;
3817;SDS011;1924;48.078;11.516;2024-01-15T17:14:07;24.70;;;0.80;;
3817;SDS011;1924;48.078;11.516;2024-01-15T17:16:34;24.80;;;0.80;;
3817;SDS011;1924;48.078;11.516;2024-01-15T17:21:44;24.70;;;0.80;;
3817;SDS011;1924;48.078;11.516;2024-01-15T17:50:06;24.70;;;0.80;;
3817;SDS011;1924;48.078;11.516;2024-01-15T17:57:35;24.60;;;0.80;;
3817;SDS011;1924;48.078;11.516;2024-01-15T18:00:03;24.70;;;0.80;;
3817;SDS011;1924;48.078;11.516;2024-01-15T18:02:32;24.60;;;0.80;;
3817;SDS011;1924;48.078;11.516;2024-01-15T18:04:58;24.67;;;0.80;;
3817;SDS011;1924;48.078;11.516;2024-01-15T18:07:26;24.77;;;0.80;;
3817;SDS011;1924;48.078;11.516;2024-01-15T18:09:53;24.77;;;0.80;;
3817;SDS011;1924;48.078;11.516;2024-01-15T18:12:20;24.60;;;0.80;;
3817;SDS011;1924;48.078;11.516;2024-01-15T18:14:47;24.70;;;0.80;;
3817;SDS011;1924;48.078;11.516;2024-01-15T18:17:13;24.70;;;0.80;;
3817;SDS011;1924;48.078;11.516;2024-01-15T18:19:40;24.70;;;0.80;;
3817;SDS011;1924;48.078;11.516;2024-01-15T18:22:07;24.60;;;0.80;;
3817;SDS011;1924;48.078;11.516;2024-01-15T18:24:36;24.70;;;0.80;;
3817;SDS011;1924;48.078;11.516;2024-01-15T18:27:02;24.77;;;0.80;;
3817;SDS011;1924;48.078;11.516;2024-01-15T18:29:29;24.70;;;0.80;;
3817;SDS011;1924;48.078;11.516;2024-01-15T18:31:56;24.60;;;0.80;;
3817;SDS011;1924;48.078;11.516;2024-01-15T18:34:23;24.60;;;0.80;;
3817;SDS011;1924;48.078;11.516;2024-01-15T18:36:50;24.70;;;0.80;;
3817;SDS011;1924;48.078;11.516;2024-01-15T18:39:16;24.60;;;0.80;;
3817;SDS011;1924;48.078;11.516;2024-01-15T18:41:45;24.60;;;0.80;;
3817;SDS011;1924;48.078;11.516;2024-01-15T18:44:12;24.50;;;0.80;;
3817;SDS011;1924;48.078;11.516;2024-01-15T18:46:39;24.40;;;0.80;;
3817;SDS011;1924;48.078;11.516;2024-01-15T18:49:08;24.50;;;0.80;;
3817;SDS011;1924;48.078;11.516;2024-01-15T18:51:35;24.53;;;0.83;;
3817;SDS011;1924;48.078;11.516;2024-01-15T18:54:02;24.50;;;0.80;;
3817;SDS011;1924;48.078;11.516;2024-01-15T18:56:29;24.50;;;0.80;;
3817;SDS011;1924;48.078;11.516;2024-01-15T18:58:57;24.40;;;0.80;;
3817;SDS011;1924;48.078;11.516;2024-01-15T19:01:27;24.40;;;0.80;;
3817;SDS011;1924;48.078;11.516;2024-01-15T19:03:55;24.50;;;0.80;;
3817;SDS011;1924;48.078;11.516;2024-01-15T19:06:22;24.50;;;0.80;;
3817;SDS011;1924;48.078;11.516;2024-01-15T19:08:50;24.30;;;0.80;;
3817;SDS011;1924;48.078;11.516;2024-01-15T19:11:17;24.40;;;0.80;;
3817;SDS011;1924;48.078;11.516;2024-01-15T19:13:44;24.40;;;0.80;;
3817;SDS011;1924;48.078;11.516;2024-01-15T19:16:13;24.40;;;0.80;;
3817;SDS011;1924;48.078;11.516;2024-01-15T19:18:40;24.47;;;0.80;;
3817;SDS011;1924;48.078;11.516;2024-01-15T19:21:07;24.40;;;0.80;;
3817;SDS011;1924;48.078;11.516;2024-01-15T19:23:34;24.50;;;0.80;;
3817;SDS011;1924;48.078;11.516;2024-01-15T19:26:01;24.20;;;0.80;;
3817;SDS011;1924;48.078;11.516;2024-01-15T19:28:29;24.47;;;0.80;;
3817;SDS011;1924;48.078;11.516;2024-01-15T19:30:56;24.20;;;0.80;;
3817;SDS011;1924;48.078;11.516;2024-01-15T19:33:24;24.30;;;0.80;;
3817;SDS011;1924;48.078;11.516;2024-01-15T19:35:50;24.30;;;0.80;;
3817;SDS011;1924;48.078;11.516;2024-01-15T19:38:17;24.40;;;0.80;;
3817;SDS011;1924;48.078;11.516;2024-01-15T19:40:44;24.30;;;0.80;;
3817;SDS011;1924;48.078;11.516;2024-01-15T19:43:10;24.37;;;0.80;;
3817;SDS011;1924;48.078;11.516;2024-01-15T19:45:37;24.30;;;0.80;;
3817;SDS011;1924;48.078;11.516;2024-01-15T19:48:04;24.40;;;0.80;;
3817;SDS011;1924;48.078;11.516;2024-01-15T19:50:32;24.37;;;0.80;;
3817;SDS011;1924;48.078;11.516;2024-01-15T19:52:59;24.37;;;0.80;;
3817;SDS011;1924;48.078;11.516;2024-01-15T19:55:26;24.20;;;0.80;;
3817;SDS011;1924;48.078;11.516;2024-01-15T19:57:53;24.10;;;0.80;;
3817;SDS011;1924;48.078;11.516;2024-01-15T20:00:19;24.20;;;0.80;;
3817;SDS011;1924;48.078;11.516;2024-01-15T20:02:46;24.20;;;0.80;;
3817;SDS011;1924;48.078;11.516;2024-01-15T20:05:13;24.27;;;0.80;;
3817;SDS011;1924;48.078;11.516;2024-01-15T20:07:42;24.10;;;0.80;;
3817;SDS011;1924;48.078;11.516;2024-01-15T20:10:09;24.10;;;0.80;;
3817;SDS011;1924;48.078;11.516;2024-01-15T20:12:35;24.00;;;0.80;;
3817;SDS011;1924;48.078;11.516;2024-01-15T20:15:03;24.10;;;0.80;;
3817;SDS011;1924;48.078;11.516;2024-01-15T20:17:30;24.00;;;0.80;;
3817;SDS011;1924;48.078;11.516;2024-01-15T20:19:57;24.10;;;0.80;;
3817;SDS011;1924;48.078;11.516;2024-01-15T20:22:24;24.17;;;0.80;;
3817;SDS011;1924;48.078;11.516;2024-01-15T20:24:52;23.97;;;0.80;;
3817;SDS011;1924;48.078;11.516;2024-01-15T20:27:18;24.00;;;0.80;;
3817;SDS011;1924;48.078;11.516;2024-01-15T20:29:45;23.90;;;0.80;;
3817;SDS011;1924;48.078;11.516;2024-01-15T20:32:12;23.90;;;0.80;;
3817;SDS011;1924;48.078;11.516;2024-01-15T20:34:41;23.90;;;0.80;;
3817;SDS011;1924;48.078;11.516;2024-01-15T20:37:08;23.90;;;0.80;;
3817;SDS011;1924;48.078;11.516;2024-01-15T20:39:34;23.90;;;0.80;;
3817;SDS011;1924;48.078;11.516;2024-01-15T20:42:03;24.00;;;0.80;;
3817;SDS011;1924;48.078;11.516;2024-01-15T20:44:30;23.90;;;0.80;;
3817;SDS011;1924;48.078;11.516;2024-01-15T20:46:57;23.77;;;0.80;;
3817;SDS011;1924;48.078;11.516;2024-01-15T20:49:25;23.87;;;0.80;;
